createdAt,value
2024-03-12T00:00:43.749Z,98720.00
2024-03-12T00:01:43.728Z,98717.00
2024-03-12T00:02:43.727Z,98719.00
2024-03-12T00:03:44.197Z,98719.00
2024-03-12T00:04:43.716Z,98721.00
2024-03-12T00:05:43.762Z,98718.00
2024-03-12T00:06:43.834Z,98718.00
2024-03-12T00:07:43.727Z,98722.00
2024-03-12T00:08:43.822Z,98720.00
2024-03-12T00:09:43.797Z,98726.00
2024-03-12T00:10:43.735Z,98729.00
2024-03-12T00:11:43.813Z,98726.00
2024-03-12T00:12:43.778Z,98727.00
2024-03-12T00:13:43.785Z,98727.00
2024-03-12T00:14:43.771Z,98726.00
2024-03-12T00:15:43.841Z,98727.00
2024-03-12T00:16:43.819Z,98731.00
2024-03-12T00:17:43.920Z,98726.00
2024-03-12T00:18:43.952Z,98728.00
2024-03-12T00:19:43.895Z,98726.00
2024-03-12T00:20:43.907Z,98728.00
2024-03-12T00:21:44.036Z,98730.00
2024-03-12T00:22:43.942Z,98732.00
2024-03-12T00:23:43.944Z,98729.00
2024-03-12T00:24:43.967Z,98732.00
2024-03-12T00:25:43.955Z,98731.00
2024-03-12T00:26:46.480Z,98729.00
2024-03-12T00:27:44.004Z,98730.00
2024-03-12T00:29:44.014Z,98723.00
2024-03-12T00:30:44.103Z,98727.00
2024-03-12T00:31:44.056Z,98727.00
2024-03-12T00:32:44.057Z,98725.00
2024-03-12T00:33:44.110Z,98722.00
2024-03-12T00:34:44.844Z,98727.00
2024-03-12T00:35:44.200Z,98724.00
2024-03-12T00:36:44.109Z,98726.00
2024-03-12T00:37:44.231Z,98726.00
2024-03-12T00:38:44.132Z,98727.00
2024-03-12T00:39:44.212Z,98729.00
2024-03-12T00:40:44.277Z,98728.00
2024-03-12T00:41:44.159Z,98726.00
2024-03-12T00:42:44.182Z,98722.00
2024-03-12T00:43:44.169Z,98725.00
2024-03-12T00:44:44.255Z,98731.00
2024-03-12T00:45:44.244Z,98728.00
2024-03-12T00:46:44.191Z,98732.00
2024-03-12T00:47:44.232Z,98728.00
2024-03-12T00:48:44.245Z,98732.00
2024-03-12T00:49:44.236Z,98730.00
2024-03-12T00:50:44.345Z,98733.00
2024-03-12T00:51:44.284Z,98735.00
2024-03-12T00:52:44.257Z,98733.00
2024-03-12T00:53:44.313Z,98735.00
2024-03-12T00:54:44.290Z,98737.00
2024-03-12T00:55:44.277Z,98740.00
2024-03-12T00:56:44.289Z,98738.00
2024-03-12T01:05:44.394Z,98747.00
2024-03-12T01:08:44.448Z,98745.00
2024-03-12T01:09:44.533Z,98747.00
2024-03-12T01:10:44.622Z,98745.00
2024-03-12T01:11:44.490Z,98747.00
2024-03-12T01:12:44.539Z,98745.00
2024-03-12T01:13:44.500Z,98752.00
2024-03-12T01:14:44.513Z,98756.00
2024-03-12T01:15:44.541Z,98751.00
2024-03-12T01:16:44.540Z,98751.00
2024-03-12T01:17:44.544Z,98751.00
2024-03-12T01:18:44.572Z,98749.00
2024-03-12T01:19:44.537Z,98745.00
2024-03-12T01:20:44.554Z,98746.00
2024-03-12T01:21:44.584Z,98752.00
2024-03-12T01:22:44.580Z,98749.00
2024-03-12T01:23:44.608Z,98748.00
2024-03-12T01:24:44.674Z,98752.00
2024-03-12T01:25:44.670Z,98753.00
2024-03-12T01:26:44.622Z,98749.00
2024-03-12T01:27:44.685Z,98757.00
2024-03-12T01:32:44.727Z,98763.00
2024-03-12T01:33:44.860Z,98762.00
2024-03-12T01:34:44.746Z,98764.00
2024-03-12T01:35:44.749Z,98763.00
2024-03-12T01:36:44.864Z,98766.00
2024-03-12T01:37:44.748Z,98764.00
2024-03-12T01:38:44.757Z,98764.00
2024-03-12T01:39:44.841Z,98765.00
2024-03-12T01:40:44.809Z,98765.00
2024-03-12T01:41:44.860Z,98767.00
2024-03-12T01:42:44.871Z,98766.00
2024-03-12T01:43:44.821Z,98767.00
2024-03-12T01:44:44.829Z,98770.00
2024-03-12T01:45:44.863Z,98767.00
2024-03-12T01:46:44.855Z,98770.00
2024-03-12T01:47:44.895Z,98770.00
2024-03-12T01:48:44.908Z,98770.00
2024-03-12T01:49:44.849Z,98768.00
2024-03-12T01:50:44.871Z,98770.00
2024-03-12T01:51:44.934Z,98775.00
2024-03-12T01:52:44.893Z,98773.00
2024-03-12T01:53:44.884Z,98775.00
2024-03-12T01:54:44.908Z,98775.00
2024-03-12T01:55:46.095Z,98775.00
2024-03-12T01:56:44.914Z,98775.00
2024-03-12T01:57:44.958Z,98778.00
2024-03-12T01:58:44.953Z,98778.00
2024-03-12T01:59:44.916Z,98780.00
2024-03-12T02:00:44.958Z,98778.00
2024-03-12T02:01:44.955Z,98780.00
2024-03-12T02:02:44.935Z,98781.00
2024-03-12T02:03:44.963Z,98783.00
2024-03-12T02:04:44.958Z,98783.00
2024-03-12T02:05:44.967Z,98782.00
2024-03-12T02:06:44.989Z,98785.00
2024-03-12T02:07:44.990Z,98782.00
2024-03-12T02:08:45.020Z,98786.00
2024-03-12T02:09:45.008Z,98788.00
2024-03-12T02:10:45.035Z,98786.00
2024-03-12T02:12:45.161Z,98787.00
2024-03-12T02:13:45.151Z,98781.00
2024-03-12T02:14:45.073Z,98787.00
2024-03-12T02:15:45.181Z,98784.00
2024-03-12T02:16:45.120Z,98785.00
2024-03-12T02:17:45.150Z,98786.00
2024-03-12T02:18:45.223Z,98785.00
2024-03-12T02:19:45.160Z,98787.00
2024-03-12T02:20:45.172Z,98788.00
2024-03-12T02:21:45.224Z,98789.00
2024-03-12T02:22:45.200Z,98789.00
2024-03-12T02:23:45.219Z,98789.00
2024-03-12T02:24:45.251Z,98782.00
2024-03-12T02:25:45.238Z,98789.00
2024-03-12T02:26:45.241Z,98791.00
2024-03-12T02:27:45.279Z,98790.00
2024-03-12T02:28:45.310Z,98792.00
2024-03-12T02:29:45.314Z,98786.00
2024-03-12T02:30:45.373Z,98791.00
2024-03-12T02:31:45.288Z,98788.00
2024-03-12T02:32:45.402Z,98793.00
2024-03-12T02:33:45.411Z,98792.00
2024-03-12T02:34:45.408Z,98791.00
2024-03-12T02:35:45.365Z,98794.00
2024-03-12T02:36:45.435Z,98795.00
2024-03-12T02:37:45.522Z,98789.00
2024-03-12T02:38:45.445Z,98788.00
2024-03-12T02:39:45.503Z,98794.00
2024-03-12T02:40:45.394Z,98794.00
2024-03-12T02:41:45.436Z,98789.00
2024-03-12T02:42:46.035Z,98795.00
2024-03-12T02:43:45.384Z,98798.00
2024-03-12T02:44:45.424Z,98796.00
2024-03-12T02:45:45.536Z,98793.00
2024-03-12T02:46:45.460Z,98793.00
2024-03-12T02:47:45.498Z,98794.00
2024-03-12T02:48:46.446Z,98795.00
2024-03-12T02:49:45.478Z,98793.00
2024-03-12T02:50:45.493Z,98795.00
2024-03-12T02:51:45.522Z,98799.00
2024-03-12T02:52:45.509Z,98798.00
2024-03-12T02:53:45.512Z,98798.00
2024-03-12T02:54:45.527Z,98797.00
2024-03-12T02:55:45.524Z,98800.00
2024-03-12T02:56:45.523Z,98803.00
2024-03-12T02:57:45.657Z,98799.00
2024-03-12T02:58:45.561Z,98802.00
2024-03-12T02:59:45.590Z,98804.00
2024-03-12T03:00:45.639Z,98800.00
2024-03-12T03:01:45.672Z,98805.00
2024-03-12T03:02:45.928Z,98803.00
2024-03-12T03:03:45.640Z,98801.00
2024-03-12T03:04:45.672Z,98803.00
2024-03-12T03:05:45.701Z,98797.00
2024-03-12T03:06:45.746Z,98800.00
2024-03-12T03:07:45.727Z,98803.00
2024-03-12T03:08:45.753Z,98805.00
2024-03-12T03:09:45.846Z,98803.00
2024-03-12T03:10:45.821Z,98807.00
2024-03-12T03:11:45.772Z,98806.00
2024-03-12T03:12:45.816Z,98805.00
2024-03-12T03:13:45.829Z,98804.00
2024-03-12T03:14:45.802Z,98802.00
2024-03-12T03:15:45.811Z,98809.00
2024-03-12T03:16:45.852Z,98807.00
2024-03-12T03:17:45.940Z,98809.00
2024-03-12T03:18:45.934Z,98810.00
2024-03-12T03:19:45.892Z,98808.00
2024-03-12T03:20:45.916Z,98810.00
2024-03-12T03:21:45.947Z,98812.00
2024-03-12T03:22:45.991Z,98808.00
2024-03-12T03:23:45.942Z,98810.00
2024-03-12T03:24:45.970Z,98804.00
2024-03-12T03:25:45.953Z,98806.00
2024-03-12T03:26:45.962Z,98805.00
2024-03-12T03:27:46.015Z,98801.00
2024-03-12T03:28:45.987Z,98802.00
2024-03-12T03:29:45.995Z,98801.00
2024-03-12T03:30:46.033Z,98806.00
2024-03-12T03:31:45.976Z,98805.00
2024-03-12T03:32:46.005Z,98808.00
2024-03-12T03:33:46.052Z,98806.00
2024-03-12T03:34:46.024Z,98809.00
2024-03-12T03:35:46.021Z,98808.00
2024-03-12T03:36:46.989Z,98813.00
2024-03-12T03:37:46.019Z,98805.00
2024-03-12T03:38:46.040Z,98808.00
2024-03-12T03:39:46.068Z,98809.00
2024-03-12T03:40:46.087Z,98809.00
2024-03-12T03:41:46.064Z,98809.00
2024-03-12T03:42:46.093Z,98812.00
2024-03-12T03:43:46.078Z,98812.00
2024-03-12T03:44:46.090Z,98809.00
2024-03-12T03:45:46.140Z,98814.00
2024-03-12T03:46:46.118Z,98814.00
2024-03-12T03:47:46.154Z,98817.00
2024-03-12T03:48:46.187Z,98816.00
2024-03-12T03:49:46.238Z,98813.00
2024-03-12T03:50:46.205Z,98819.00
2024-03-12T03:51:46.222Z,98819.00
2024-03-12T03:52:46.167Z,98819.00
2024-03-12T03:53:46.221Z,98820.00
2024-03-12T03:54:46.211Z,98821.00
2024-03-12T03:55:46.237Z,98821.00
2024-03-12T03:56:46.206Z,98820.00
2024-03-12T03:57:46.304Z,98822.00
2024-03-12T03:58:46.287Z,98828.00
2024-03-12T03:59:46.266Z,98833.00
2024-03-12T04:01:46.265Z,98839.00
2024-03-12T04:02:46.640Z,98842.00
2024-03-12T04:03:46.314Z,98843.00
2024-03-12T04:04:46.290Z,98846.00
2024-03-12T04:05:46.395Z,98851.00
2024-03-12T04:06:46.374Z,98853.00
2024-03-12T04:07:46.354Z,98852.00
2024-03-12T04:08:46.364Z,98851.00
2024-03-12T04:11:12.324Z,98858.00
2024-03-12T04:12:12.359Z,98857.00
2024-03-12T04:13:12.449Z,98859.00
2024-03-12T04:14:12.402Z,98857.00
2024-03-12T04:15:12.406Z,98863.00
2024-03-12T04:16:12.488Z,98862.00
2024-03-12T04:17:12.414Z,98863.00
2024-03-12T04:18:12.532Z,98863.00
2024-03-12T04:19:12.538Z,98867.00
2024-03-12T04:20:13.041Z,98872.00
2024-03-12T04:21:12.599Z,98868.00
2024-03-12T04:22:12.539Z,98870.00
2024-03-12T04:23:12.478Z,98876.00
2024-03-12T04:24:12.567Z,98877.00
2024-03-12T04:25:12.532Z,98877.00
2024-03-12T04:26:12.553Z,98878.00
2024-03-12T04:27:12.587Z,98875.00
2024-03-12T04:28:12.742Z,98877.00
2024-03-12T04:29:12.597Z,98873.00
2024-03-12T04:30:12.631Z,98881.00
2024-03-12T04:31:12.750Z,98880.00
2024-03-12T04:32:12.658Z,98884.00
2024-03-12T04:33:12.713Z,98885.00
2024-03-12T04:34:12.670Z,98886.00
2024-03-12T04:35:12.643Z,98885.00
2024-03-12T04:36:12.652Z,98886.00
2024-03-12T04:37:12.751Z,98886.00
2024-03-12T04:38:16.064Z,98888.00
2024-03-12T04:39:12.689Z,98890.00
2024-03-12T04:40:13.178Z,98891.00
2024-03-12T04:41:12.730Z,98890.00
2024-03-12T04:42:12.769Z,98887.00
2024-03-12T04:43:12.937Z,98887.00
2024-03-12T04:44:12.784Z,98887.00
2024-03-12T04:45:12.814Z,98887.00
2024-03-12T04:46:12.983Z,98896.00
2024-03-12T04:47:12.844Z,98895.00
2024-03-12T04:48:12.998Z,98895.00
2024-03-12T04:49:12.881Z,98896.00
2024-03-12T04:50:12.849Z,98892.00
2024-03-12T04:51:12.858Z,98894.00
2024-03-12T04:52:12.952Z,98898.00
2024-03-12T04:53:12.926Z,98895.00
2024-03-12T04:54:12.903Z,98896.00
2024-03-12T04:55:12.929Z,98896.00
2024-03-12T04:56:13.021Z,98899.00
2024-03-12T04:57:12.925Z,98899.00
2024-03-12T04:58:12.982Z,98896.00
2024-03-12T04:59:12.991Z,98898.00
2024-03-12T05:00:13.000Z,98897.00
2024-03-12T05:01:13.020Z,98900.00
2024-03-12T05:02:12.993Z,98896.00
2024-03-12T05:03:13.020Z,98904.00
2024-03-12T05:04:18.546Z,98904.00
2024-03-12T05:05:13.055Z,98903.00
2024-03-12T05:08:13.011Z,98908.00
2024-03-12T05:09:13.107Z,98908.00
2024-03-12T05:10:13.254Z,98910.00
2024-03-12T05:11:13.043Z,98911.00
2024-03-12T05:12:13.092Z,98912.00
2024-03-12T05:13:13.192Z,98916.00
2024-03-12T05:14:13.094Z,98918.00
2024-03-12T05:15:13.213Z,98919.00
2024-03-12T05:16:13.237Z,98921.00
2024-03-12T05:17:13.150Z,98918.00
2024-03-12T05:18:13.233Z,98921.00
2024-03-12T05:19:13.517Z,98927.00
2024-03-12T05:20:13.152Z,98922.00
2024-03-12T05:21:13.184Z,98929.00
2024-03-12T05:22:13.231Z,98931.00
2024-03-12T05:23:13.192Z,98931.00
2024-03-12T05:24:13.184Z,98936.00
2024-03-12T05:25:13.265Z,98933.00
2024-03-12T05:26:13.211Z,98932.00
2024-03-12T05:27:13.203Z,98937.00
2024-03-12T05:28:13.213Z,98941.00
2024-03-12T05:29:13.187Z,98943.00
2024-03-12T05:30:13.205Z,98937.00
2024-03-12T05:31:13.245Z,98942.00
2024-03-12T05:32:13.181Z,98942.00
2024-03-12T05:33:13.295Z,98940.00
2024-03-12T05:34:13.318Z,98938.00
2024-03-12T05:35:13.265Z,98942.00
2024-03-12T05:36:13.275Z,98940.00
2024-03-12T05:37:13.439Z,98944.00
2024-03-12T05:38:13.510Z,98941.00
2024-03-12T05:39:13.325Z,98938.00
2024-03-12T05:40:13.394Z,98937.00
2024-03-12T05:41:13.353Z,98941.00
2024-03-12T05:42:13.317Z,98939.00
2024-03-12T05:43:13.347Z,98942.00
2024-03-12T05:44:13.353Z,98947.00
2024-03-12T05:45:13.356Z,98941.00
2024-03-12T05:46:13.432Z,98945.00
2024-03-12T05:47:13.957Z,98945.00
2024-03-12T05:48:13.519Z,98941.00
2024-03-12T05:49:13.613Z,98943.00
2024-03-12T05:50:13.459Z,98947.00
2024-03-12T05:51:13.509Z,98947.00
2024-03-12T05:52:13.512Z,98950.00
2024-03-12T05:53:13.491Z,98946.00
2024-03-12T05:54:13.479Z,98949.00
2024-03-12T05:55:13.524Z,98944.00
2024-03-12T05:56:16.905Z,98951.00
2024-03-12T05:57:13.608Z,98952.00
2024-03-12T05:58:13.726Z,98955.00
2024-03-12T05:59:13.564Z,98953.00
2024-03-12T06:00:13.577Z,98960.00
2024-03-12T06:01:13.765Z,98960.00
2024-03-12T06:02:13.714Z,98959.00
2024-03-12T06:03:13.590Z,98958.00
2024-03-12T06:04:13.758Z,98962.00
2024-03-12T06:05:13.781Z,98959.00
2024-03-12T06:06:13.622Z,98962.00
2024-03-12T06:07:13.839Z,98961.00
2024-03-12T06:08:13.623Z,98961.00
2024-03-12T06:09:13.625Z,98962.00
2024-03-12T06:10:13.714Z,98960.00
2024-03-12T06:11:13.680Z,98968.00
2024-03-12T06:12:13.652Z,98964.00
2024-03-12T06:13:13.778Z,98968.00
2024-03-12T06:14:13.686Z,98970.00
2024-03-12T06:15:13.728Z,98971.00
2024-03-12T06:16:13.709Z,98972.00
2024-03-12T06:17:13.687Z,98975.00
2024-03-12T06:19:13.753Z,98979.00
2024-03-12T06:20:13.748Z,98978.00
2024-03-12T06:21:13.794Z,98979.00
2024-03-12T06:22:13.821Z,98975.00
2024-03-12T06:23:13.805Z,98979.00
2024-03-12T06:24:13.845Z,98983.00
2024-03-12T06:25:14.133Z,98984.00
2024-03-12T06:26:13.812Z,98984.00
2024-03-12T06:27:13.832Z,98983.00
2024-03-12T06:28:13.935Z,98986.00
2024-03-12T06:29:13.895Z,98987.00
2024-03-12T06:30:13.833Z,98990.00
2024-03-12T06:31:13.973Z,98991.00
2024-03-12T06:32:13.873Z,98993.00
2024-03-12T06:33:13.959Z,98994.00
2024-03-12T06:34:14.240Z,98994.00
2024-03-12T06:35:13.884Z,98997.00
2024-03-12T06:36:13.899Z,98996.00
2024-03-12T06:38:13.921Z,98997.00
2024-03-12T06:40:14.021Z,98995.00
2024-03-12T06:41:13.934Z,99001.00
2024-03-12T06:42:13.999Z,99000.00
2024-03-12T06:43:14.048Z,99001.00
2024-03-12T06:44:14.070Z,99008.00
2024-03-12T06:45:14.096Z,99004.00
2024-03-12T06:46:14.198Z,99003.00
2024-03-12T06:47:14.034Z,99006.00
2024-03-12T06:48:14.152Z,99008.00
2024-03-12T06:49:14.126Z,99009.00
2024-03-12T06:50:14.092Z,99006.00
2024-03-12T06:51:14.206Z,99006.00
2024-03-12T06:52:14.128Z,99000.00
2024-03-12T06:53:14.185Z,99005.00
2024-03-12T06:54:14.127Z,99004.00
2024-03-12T06:55:16.908Z,99005.00
2024-03-12T06:57:14.130Z,99013.00
2024-03-12T06:58:14.195Z,99014.00
2024-03-12T06:59:14.156Z,99017.00
2024-03-12T07:00:14.155Z,99016.00
2024-03-12T07:01:14.251Z,99013.00
2024-03-12T07:02:14.214Z,99013.00
2024-03-12T07:03:14.196Z,99016.00
2024-03-12T07:04:14.249Z,99015.00
2024-03-12T07:05:14.209Z,99016.00
2024-03-12T07:06:14.218Z,99014.00
2024-03-12T07:07:14.272Z,99019.00
2024-03-12T07:08:14.244Z,99016.00
2024-03-12T07:09:15.773Z,99022.00
2024-03-12T07:10:14.353Z,99022.00
2024-03-12T07:11:14.337Z,99021.00
2024-03-12T07:12:14.286Z,99023.00
2024-03-12T07:13:14.669Z,99028.00
2024-03-12T07:15:14.300Z,99027.00
2024-03-12T07:16:14.408Z,99027.00
2024-03-12T07:17:14.421Z,99029.00
2024-03-12T07:18:14.389Z,99032.00
2024-03-12T07:19:14.446Z,99027.00
2024-03-12T07:20:14.352Z,99032.00
2024-03-12T07:21:14.408Z,99029.00
2024-03-12T07:22:14.511Z,99031.00
2024-03-12T07:23:14.426Z,99030.00
2024-03-12T07:24:14.452Z,99028.00
2024-03-12T07:25:14.772Z,99033.00
2024-03-12T07:26:14.474Z,99029.00
2024-03-12T07:27:14.507Z,99029.00
2024-03-12T07:29:14.492Z,99030.00
2024-03-12T07:30:14.545Z,99031.00
2024-03-12T07:31:14.631Z,99027.00
2024-03-12T07:32:14.594Z,99030.00
2024-03-12T07:33:14.663Z,99029.00
2024-03-12T07:34:18.155Z,99034.00
2024-03-12T07:35:14.522Z,99030.00
2024-03-12T07:36:14.569Z,99034.00
2024-03-12T07:37:14.703Z,99029.00
2024-03-12T07:38:14.559Z,99027.00
2024-03-12T07:39:14.588Z,99031.00
2024-03-12T07:40:14.744Z,99033.00
2024-03-12T07:41:14.603Z,99030.00
2024-03-12T07:42:15.516Z,99030.00
2024-03-12T07:43:14.691Z,99033.00
2024-03-12T07:44:14.624Z,99028.00
2024-03-12T07:45:15.521Z,99033.00
2024-03-12T07:46:14.688Z,99036.00
2024-03-12T07:47:14.656Z,99037.00
2024-03-12T07:48:14.683Z,99038.00
2024-03-12T07:49:14.802Z,99035.00
2024-03-12T07:50:14.812Z,99034.00
2024-03-12T07:51:14.645Z,99039.00
2024-03-12T07:52:14.860Z,99035.00
2024-03-12T07:53:14.661Z,99037.00
2024-03-12T07:54:14.650Z,99038.00
2024-03-12T07:55:14.775Z,99041.00
2024-03-12T07:56:14.775Z,99048.00
2024-03-12T07:57:16.350Z,99048.00
2024-03-12T07:58:14.830Z,99048.00
2024-03-12T07:59:14.744Z,99048.00
2024-03-12T08:00:14.740Z,99044.00
2024-03-12T08:01:14.836Z,99048.00
2024-03-12T08:02:14.768Z,99049.00
2024-03-12T08:03:14.772Z,99047.00
2024-03-12T08:04:14.820Z,99046.00
2024-03-12T08:05:14.833Z,99045.00
2024-03-12T08:07:14.960Z,99047.00
2024-03-12T08:09:14.798Z,99046.00
2024-03-12T08:10:14.962Z,99047.00
2024-03-12T08:11:14.905Z,99051.00
2024-03-12T08:12:17.675Z,99047.00
2024-03-12T08:13:14.933Z,99053.00
2024-03-12T08:14:14.887Z,99057.00
2024-03-12T08:15:14.998Z,99067.00
2024-03-12T08:16:14.995Z,99056.00
2024-03-12T08:17:14.958Z,99059.00
2024-03-12T08:18:20.694Z,99059.00
2024-03-12T08:19:15.040Z,99062.00
2024-03-12T08:21:15.015Z,99065.00
2024-03-12T08:22:15.507Z,99060.00
2024-03-12T08:23:15.099Z,99065.00
2024-03-12T08:24:15.096Z,99068.00
2024-03-12T08:25:15.836Z,99061.00
2024-03-12T08:26:15.069Z,99065.00
2024-03-12T08:27:15.080Z,99057.00
2024-03-12T08:28:15.195Z,99061.00
2024-03-12T08:30:15.108Z,99057.00
2024-03-12T08:31:23.670Z,99060.00
2024-03-12T08:32:15.365Z,99063.00
2024-03-12T08:33:15.290Z,99063.00
2024-03-12T08:34:15.307Z,99063.00
2024-03-12T08:35:15.234Z,99064.00
2024-03-12T08:36:15.196Z,99059.00
2024-03-12T08:37:15.507Z,99065.00
2024-03-12T08:38:15.214Z,99063.00
2024-03-12T08:39:15.234Z,99068.00
2024-03-12T08:40:15.487Z,99065.00
2024-03-12T08:41:15.283Z,99068.00
2024-03-12T08:42:15.300Z,99068.00
2024-03-12T08:43:15.347Z,99063.00
2024-03-12T08:44:15.390Z,99067.00
2024-03-12T08:45:15.377Z,99068.00
2024-03-12T08:46:15.398Z,99067.00
2024-03-12T08:47:15.340Z,99061.00
2024-03-12T08:48:15.381Z,99065.00
2024-03-12T08:49:15.406Z,99067.00
2024-03-12T08:50:15.655Z,99066.00
2024-03-12T08:51:15.389Z,99068.00
2024-03-12T08:52:15.527Z,99070.00
2024-03-12T08:53:16.299Z,99071.00
2024-03-12T08:54:15.690Z,99071.00
2024-03-12T08:55:15.558Z,99073.00
2024-03-12T08:56:15.459Z,99078.00
2024-03-12T08:57:15.448Z,99072.00
2024-03-12T08:58:15.506Z,99072.00
2024-03-12T08:59:15.518Z,99067.00
2024-03-12T09:01:15.635Z,99074.00
2024-03-12T09:02:15.622Z,99075.00
2024-03-12T09:03:15.575Z,99079.00
2024-03-12T09:04:15.626Z,99076.00
2024-03-12T09:05:15.580Z,99081.00
2024-03-12T09:06:15.604Z,99080.00
2024-03-12T09:07:15.645Z,99078.00
2024-03-12T09:08:15.592Z,99080.00
2024-03-12T09:09:15.813Z,99081.00
2024-03-12T09:10:15.623Z,99081.00
2024-03-12T09:12:15.667Z,99081.00
2024-03-12T09:14:15.700Z,99081.00
2024-03-12T09:15:15.738Z,99078.00
2024-03-12T09:17:15.747Z,99080.00
2024-03-12T09:18:15.763Z,99089.00
2024-03-12T09:19:15.811Z,99090.00
2024-03-12T09:20:15.789Z,99088.00
2024-03-12T09:21:15.762Z,99087.00
2024-03-12T09:22:15.861Z,99087.00
2024-03-12T09:23:15.944Z,99092.00
2024-03-12T09:24:15.792Z,99089.00
2024-03-12T09:25:19.201Z,99092.00
2024-03-12T09:26:15.801Z,99087.00
2024-03-12T09:27:15.868Z,99088.00
2024-03-12T09:28:15.902Z,99089.00
2024-03-12T09:29:15.880Z,99089.00
2024-03-12T09:30:15.894Z,99088.00
2024-03-12T09:31:16.010Z,99092.00
2024-03-12T09:33:16.014Z,99093.00
2024-03-12T09:34:16.024Z,99096.00
2024-03-12T09:35:15.993Z,99088.00
2024-03-12T09:36:16.142Z,99093.00
2024-03-12T09:37:15.961Z,99095.00
2024-03-12T09:38:15.982Z,99092.00
2024-03-12T09:39:15.963Z,99091.00
2024-03-12T09:40:16.091Z,99092.00
2024-03-12T09:41:16.044Z,99091.00
2024-03-12T09:42:16.022Z,99093.00
2024-03-12T09:43:16.088Z,99097.00
2024-03-12T09:44:15.995Z,99099.00
2024-03-12T09:45:15.955Z,99099.00
2024-03-12T09:46:16.055Z,99104.00
2024-03-12T09:47:15.991Z,99103.00
2024-03-12T09:48:16.031Z,99103.00
2024-03-12T09:49:16.053Z,99110.00
2024-03-12T09:51:16.027Z,99110.00
2024-03-12T09:52:16.083Z,99111.00
2024-03-12T09:53:16.068Z,99113.00
2024-03-12T09:54:16.025Z,99113.00
2024-03-12T09:55:16.392Z,99117.00
2024-03-12T09:56:16.086Z,99111.00
2024-03-12T09:57:16.165Z,99112.00
2024-03-12T09:58:16.188Z,99112.00
2024-03-12T09:59:16.033Z,99107.00
2024-03-12T10:00:16.062Z,99116.00
2024-03-12T10:01:16.168Z,99111.00
2024-03-12T10:02:16.587Z,99111.00
2024-03-12T10:04:16.206Z,99113.00
2024-03-12T10:05:16.128Z,99113.00
2024-03-12T10:06:16.160Z,99116.00
2024-03-12T10:07:16.255Z,99117.00
2024-03-12T10:08:16.256Z,99113.00
2024-03-12T10:09:16.156Z,99114.00
2024-03-12T10:10:16.303Z,99120.00
2024-03-12T10:11:16.258Z,99124.00
2024-03-12T10:13:16.513Z,99129.00
2024-03-12T10:14:16.198Z,99132.00
2024-03-12T10:15:16.220Z,99132.00
2024-03-12T10:16:16.399Z,99123.00
2024-03-12T10:17:16.188Z,99128.00
2024-03-12T10:18:16.171Z,99128.00
2024-03-12T10:19:16.580Z,99128.00
2024-03-12T10:20:16.232Z,99123.00
2024-03-12T10:21:16.232Z,99127.00
2024-03-12T10:22:16.265Z,99123.00
2024-03-12T10:23:16.261Z,99124.00
2024-03-12T10:24:16.287Z,99123.00
2024-03-12T10:25:16.288Z,99125.00
2024-03-12T10:26:16.287Z,99126.00
2024-03-12T10:27:16.384Z,99130.00
2024-03-12T10:28:16.377Z,99124.00
2024-03-12T10:29:16.367Z,99125.00
2024-03-12T10:31:16.734Z,99125.00
2024-03-12T10:32:16.379Z,99128.00
2024-03-12T10:33:16.384Z,99126.00
2024-03-12T10:34:16.551Z,99124.00
2024-03-12T10:35:16.401Z,99132.00
2024-03-12T10:36:16.472Z,99130.00
2024-03-12T10:37:16.535Z,99132.00
2024-03-12T10:38:16.428Z,99132.00
2024-03-12T10:39:16.435Z,99132.00
2024-03-12T10:40:16.567Z,99134.00
2024-03-12T10:41:16.447Z,99134.00
2024-03-12T10:42:16.442Z,99138.00
2024-03-12T10:43:16.479Z,99131.00
2024-03-12T10:44:16.458Z,99133.00
2024-03-12T10:45:16.476Z,99135.00
2024-03-12T10:46:16.612Z,99137.00
2024-03-12T10:47:16.481Z,99135.00
2024-03-12T10:48:16.580Z,99138.00
2024-03-12T10:49:16.553Z,99135.00
2024-03-12T10:50:16.460Z,99131.00
2024-03-12T10:51:16.524Z,99133.00
2024-03-12T10:52:16.486Z,99133.00
2024-03-12T10:53:16.482Z,99135.00
2024-03-12T10:54:16.522Z,99132.00
2024-03-12T10:55:16.592Z,99132.00
2024-03-12T10:56:16.773Z,99134.00
2024-03-12T10:58:16.649Z,99133.00
2024-03-12T10:59:16.624Z,99136.00
2024-03-12T11:00:16.605Z,99136.00
2024-03-12T11:01:16.820Z,99130.00
2024-03-12T11:02:16.644Z,99141.00
2024-03-12T11:03:16.661Z,99138.00
2024-03-12T11:04:16.750Z,99135.00
2024-03-12T11:05:16.644Z,99139.00
2024-03-12T11:06:16.734Z,99137.00
2024-03-12T11:07:16.730Z,99138.00
2024-03-12T11:08:16.701Z,99142.00
2024-03-12T11:09:16.671Z,99131.00
2024-03-12T11:10:16.748Z,99137.00
2024-03-12T11:12:16.737Z,99138.00
2024-03-12T11:13:16.841Z,99137.00
2024-03-12T11:14:16.748Z,99135.00
2024-03-12T11:15:16.849Z,99133.00
2024-03-12T11:16:16.884Z,99135.00
2024-03-12T11:17:16.934Z,99140.00
2024-03-12T11:18:16.916Z,99138.00
2024-03-12T11:19:16.913Z,99137.00
2024-03-12T11:20:16.835Z,99138.00
2024-03-12T11:21:16.861Z,99140.00
2024-03-12T11:22:16.962Z,99137.00
2024-03-12T11:23:16.883Z,99137.00
2024-03-12T11:24:16.867Z,99138.00
2024-03-12T11:25:17.094Z,99136.00
2024-03-12T11:26:16.886Z,99140.00
2024-03-12T11:28:16.847Z,99142.00
2024-03-12T11:29:16.870Z,99140.00
2024-03-12T11:30:16.923Z,99136.00
2024-03-12T11:31:17.693Z,99138.00
2024-03-12T11:32:16.970Z,99135.00
2024-03-12T11:33:17.086Z,99135.00
2024-03-12T11:34:17.009Z,99133.00
2024-03-12T11:35:16.985Z,99133.00
2024-03-12T11:36:16.995Z,99134.00
2024-03-12T11:37:17.054Z,99128.00
2024-03-12T11:38:17.435Z,99130.00
2024-03-12T11:39:17.135Z,99129.00
2024-03-12T11:40:17.055Z,99134.00
2024-03-12T11:41:17.111Z,99134.00
2024-03-12T11:42:17.039Z,99137.00
2024-03-12T11:43:17.162Z,99133.00
2024-03-12T11:44:17.209Z,99133.00
2024-03-12T11:45:17.147Z,99137.00
2024-03-12T11:46:17.216Z,99136.00
2024-03-12T11:47:17.182Z,99134.00
2024-03-12T11:48:17.227Z,99136.00
2024-03-12T11:49:17.248Z,99133.00
2024-03-12T11:50:17.188Z,99133.00
2024-03-12T11:51:17.218Z,99131.00
2024-03-12T11:52:17.270Z,99133.00
2024-03-12T11:53:17.254Z,99139.00
2024-03-12T11:55:17.289Z,99137.00
2024-03-12T11:57:17.344Z,99138.00
2024-03-12T11:58:17.389Z,99135.00
2024-03-12T12:00:17.368Z,99136.00
2024-03-12T12:02:17.386Z,99137.00
2024-03-12T12:03:17.365Z,99133.00
2024-03-12T12:04:17.417Z,99138.00
2024-03-12T12:05:17.515Z,99133.00
2024-03-12T12:06:17.392Z,99133.00
2024-03-12T12:08:17.425Z,99139.00
2024-03-12T12:09:17.446Z,99137.00
2024-03-12T12:10:17.622Z,99138.00
2024-03-12T12:11:17.541Z,99136.00
2024-03-12T12:12:17.530Z,99134.00
2024-03-12T12:13:17.669Z,99141.00
2024-03-12T12:14:17.541Z,99131.00
2024-03-12T12:15:17.513Z,99133.00
2024-03-12T12:16:17.621Z,99133.00
2024-03-12T12:17:17.581Z,99133.00
2024-03-12T12:18:17.684Z,99133.00
2024-03-12T12:19:22.184Z,99133.00
2024-03-12T12:20:18.043Z,99132.00
2024-03-12T12:21:17.644Z,99133.00
2024-03-12T12:22:17.765Z,99130.00
2024-03-12T12:23:17.652Z,99134.00
2024-03-12T12:24:17.632Z,99131.00
2024-03-12T12:25:17.684Z,99130.00
2024-03-12T12:26:17.636Z,99136.00
2024-03-12T12:27:17.675Z,99131.00
2024-03-12T12:28:17.704Z,99129.00
2024-03-12T12:29:17.675Z,99132.00
2024-03-12T12:30:17.697Z,99133.00
2024-03-12T12:31:17.917Z,99132.00
2024-03-12T12:32:17.760Z,99136.00